Большая Халань

СКИДКИ НА СМАРТФОНЫ!

Карта отелей и гостиниц, располагающихся рядом с аэропортом Большая Халань :

Большая Халань Белгородская область 50° 54' 58.86" N, 37° 24' 24.5412" E
Большая Халань Белгородская область 50° 54' 58.86" N, 37° 24' 24.5412" E
Код аэродрома ИКАО
ZEF8
Код аэродрома RU
ЗЕФ8
Координаты
N50.91635° E037.40682°
Превышение над уровнем моря
217
Основная полоса
03/21
Курс магнитный
033,8/213,8
Длина основной ВПП
415
Ширина основной ВПП
18
Покрытие основной ВПП
Твёрдое (асфальт)
Освещение ВПП
Нет
Тип: 
Аэродром
Класс аэродрома: 
Принадлежность: 
ГА
Статус: 
Недействующий
Сайт: 
E-mail аэродрома: 
Страна: 
Россия
Регион: 
Белгородская область
Город: 
Дополнительная информация: 
Бывшая площадка АХР.

Скидки на навигаторы!

Найти трансфер

С помощью этой формы Вы можете найти трансфер из аэропорта Большая Халань в город, аэропорт или вокзал:

Погода в аэропортах:

Авиационная погода в Витебске

Регион: 
Погода METAR: 
UMII 072100Z 14007G11MPS 3100 -SHSN BLSN BKN006 OVC012CB M05/M07 Q1008 TEMPO 2000 SHSN BKN005 RMK QBB180
Время наблюдения
2022-12-07T21:00:00Z
Температура C
-5.0
Точка росы
-7.0
Направление ветра
140
Скорость ветра (узлы)
14
Метео видимость
1.93
Облачность
BKN
OVC
Нижняя граница облачности (футы)
600
1200
Явления погоды
-SHSN BLSN
Условия полета
IFR
BKN – значительная (рассеянная, разорванная) облачность; OVC – сплошная облачность;
-SHSN - слабый ливневой снег, BLSN – метель низовая или общая;

Авиационная погода в Яссах

Регион: 
Погода METAR: 
LRIA 072100Z 12003KT 0200 R14/0375N FG VV001 02/02 Q1015
Время наблюдения
2022-12-07T21:00:00Z
Температура C
2.0
Точка росы
2.0
Направление ветра
120
Скорость ветра (узлы)
3
Метео видимость
0.12
Облачность
OVX
Нижняя граница облачности (футы)
0
Явления погоды
FG
Условия полета
LIFR
FG – туман (небо не видно, температура воздуха выше нуля или ноль);

Авиационная погода в Братске

Регион: 
Погода METAR: 
UIBB 072100Z 26005MPS 240V300 8000 -SHSN BKN020CB M14/M17 Q1022 R30/820350 NOSIG RMK QFE723/0964
Время наблюдения
2022-12-07T21:00:00Z
Температура C
-14.0
Точка росы
-17.0
Направление ветра
260
Скорость ветра (узлы)
10
Метео видимость
4.97
Облачность
BKN
Нижняя граница облачности (футы)
2000
Явления погоды
-SHSN
Условия полета
MVFR
Аэропорт подробнее: 
BKN – значительная (рассеянная, разорванная) облачность;
-SHSN - слабый ливневой снег;

Авиационная погода в Екатеринбурге

Регион: 
Погода METAR: 
USSS 072100Z 26004MPS 9999 -SN SCT005 M15/M17 Q1034 R26L/39//37 TEMPO BKN003 RMK QFE754/1006
Время наблюдения
2022-12-07T21:00:00Z
Температура C
-15.0
Точка росы
-17.0
Направление ветра
260
Скорость ветра (узлы)
8
Метео видимость
6.21
Облачность
SCT
Нижняя граница облачности (футы)
500
Явления погоды
-SN
Условия полета
VFR
Аэропорт подробнее: 
SCT – разбросанная отдельная облачность;
-SN – слабый снег;